Time;durP1;ratioP1;P1;durP2;ratioP2;P2;SDS_P1;SDS_P2;PMS_P1;PMS_P2;Temp;Humidity;BMP_temperature;BMP_pressure;BME280_temperature;BME280_humidity;BME280_pressure;Samples;Min_cycle;Max_cycle;Signal;HPM_P1;HPM_P2
2021/07/28 00:00:39;;;;;;;6.70;5.20;;;;;;;16.87;100.00;100348.09;4977933;28;20293;-78
2021/07/28 00:03:05;;;;;;;7.10;5.50;;;;;;;16.82;100.00;100348.34;4982026;28;20228;-77
2021/07/28 00:05:33;;;;;;;5.87;5.27;;;;;;;16.80;100.00;100342.31;4976062;28;20233;-77
2021/07/28 00:07:59;;;;;;;8.93;5.60;;;;;;;16.77;100.00;100342.50;4982389;28;20288;-79
2021/07/28 00:10:26;;;;;;;6.70;5.50;;;;;;;16.78;100.00;100342.41;4981353;28;20202;-76
2021/07/28 00:12:52;;;;;;;6.63;5.30;;;;;;;16.78;100.00;100346.81;4983695;28;20202;-77
2021/07/28 00:15:18;;;;;;;5.67;5.07;;;;;;;16.88;100.00;100339.28;4978684;28;20240;-76
2021/07/28 00:17:47;;;;;;;6.37;5.60;;;;;;;16.87;100.00;100342.84;4975993;28;20219;-77
2021/07/28 00:20:18;;;;;;;7.40;5.17;;;;;;;16.93;100.00;100345.97;4976737;28;20205;-76
2021/07/28 00:25:29;;;;;;;7.53;5.53;;;;;;;16.99;100.00;100337.72;4974830;28;20429;-76
2021/07/28 00:27:56;;;;;;;6.27;5.10;;;;;;;16.94;100.00;100344.19;4986770;28;20219;-76
2021/07/28 00:30:22;;;;;;;5.60;5.00;;;;;;;16.94;100.00;100336.28;4978231;28;20571;-76
2021/07/28 00:32:48;;;;;;;6.37;5.27;;;;;;;16.95;100.00;100333.56;4981372;28;20953;-76
2021/07/28 00:35:15;;;;;;;6.00;5.03;;;;;;;16.92;100.00;100340.78;4976642;28;20690;-76
2021/07/28 00:37:44;;;;;;;6.10;4.93;;;;;;;16.94;100.00;100334.50;4982133;28;20508;-78
2021/07/28 00:40:13;;;;;;;6.50;5.13;;;;;;;16.94;100.00;100342.41;4976719;28;20243;-78
2021/07/28 00:42:39;;;;;;;6.03;5.17;;;;;;;16.88;100.00;100344.53;4986594;28;20218;-76
2021/07/28 00:45:06;;;;;;;6.47;5.53;;;;;;;16.86;100.00;100342.00;4979861;28;20669;-74
2021/07/28 00:47:32;;;;;;;6.90;5.43;;;;;;;16.93;100.00;100335.44;4979621;28;20198;-77
2021/07/28 00:50:00;;;;;;;8.07;5.50;;;;;;;16.99;100.00;100339.50;4974081;28;20496;-76
2021/07/28 00:52:26;;;;;;;6.00;5.20;;;;;;;16.96;100.00;100339.69;4981474;28;20201;-77
2021/07/28 00:54:54;;;;;;;5.23;4.73;;;;;;;16.92;100.00;100340.78;4979060;28;20237;-77
2021/07/28 00:57:21;;;;;;;5.67;4.97;;;;;;;16.88;100.00;100334.00;4984863;28;20575;-76
2021/07/28 00:59:48;;;;;;;5.77;5.17;;;;;;;16.86;100.00;100334.09;4981598;28;20223;-77
2021/07/28 01:02:14;;;;;;;6.17;5.17;;;;;;;16.88;100.00;100328.75;4977719;28;20239;-76
2021/07/28 01:04:41;;;;;;;6.57;5.60;;;;;;;16.90;100.00;100329.50;4979101;28;20299;-75
2021/07/28 01:07:08;;;;;;;7.03;5.50;;;;;;;16.95;100.00;100333.56;4974732;28;20201;-75
2021/07/28 01:09:34;;;;;;;6.87;5.57;;;;;;;16.96;100.00;100334.44;4986145;28;20220;-74
2021/07/28 01:12:04;;;;;;;7.13;5.43;;;;;;;16.99;100.00;100336.88;4975245;28;20682;-75
2021/07/28 01:14:32;;;;;;;6.77;5.07;;;;;;;17.01;100.00;100341.13;4983593;28;20570;-75
2021/07/28 01:16:58;;;;;;;6.60;5.13;;;;;;;17.06;100.00;100338.19;4976348;28;20232;-75
2021/07/28 01:19:30;;;;;;;8.73;5.37;;;;;;;17.02;100.00;100332.25;4983041;28;20206;-74
2021/07/28 01:22:01;;;;;;;5.77;5.10;;;;;;;17.06;100.00;100326.81;4975062;28;20221;-75
2021/07/28 01:24:30;;;;;;;7.17;5.33;;;;;;;17.11;100.00;100322.16;4981312;28;20568;-75
2021/07/28 01:26:57;;;;;;;6.57;5.20;;;;;;;17.03;100.00;100326.06;4975296;28;20217;-77
2021/07/28 01:29:24;;;;;;;7.30;5.50;;;;;;;17.10;100.00;100321.31;4981253;28;20214;-73
2021/07/28 01:31:53;;;;;;;6.20;5.57;;;;;;;17.05;100.00;100320.72;4979256;28;20533;-76
2021/07/28 01:34:21;;;;;;;6.57;5.50;;;;;;;17.13;100.00;100321.13;4986024;28;20213;-75
2021/07/28 01:36:48;;;;;;;7.47;5.47;;;;;;;17.03;100.00;100319.97;4983288;28;20395;-76
2021/07/28 01:39:15;;;;;;;5.53;4.67;;;;;;;16.99;100.00;100311.41;4982888;28;20253;-76
2021/07/28 01:41:44;;;;;;;6.77;4.77;;;;;;;17.05;100.00;100315.47;4982820;28;20205;-74
2021/07/28 01:44:10;;;;;;;7.33;5.57;;;;;;;17.07;100.00;100310.09;4974001;28;20214;-74
2021/07/28 01:46:36;;;;;;;6.20;5.17;;;;;;;17.07;100.00;100321.47;4979698;28;20773;-76
2021/07/28 01:49:03;;;;;;;5.87;5.07;;;;;;;17.05;100.00;100326.00;4986339;28;20214;-77
2021/07/28 01:51:29;;;;;;;7.20;5.47;;;;;;;17.00;100.00;100322.78;4981576;28;20197;-75
2021/07/28 01:53:55;;;;;;;7.53;5.30;;;;;;;17.04;100.00;100321.66;4980358;28;20210;-74
2021/07/28 01:56:22;;;;;;;6.50;5.37;;;;;;;17.08;100.00;100327.59;4985176;28;20225;-74
2021/07/28 01:58:56;;;;;;;6.73;5.60;;;;;;;17.06;100.00;100325.03;4977587;28;20206;-76
2021/07/28 02:01:22;;;;;;;8.37;5.03;;;;;;;17.09;100.00;100318.75;4985092;28;20205;-77
2021/07/28 02:03:49;;;;;;;6.97;5.43;;;;;;;17.08;100.00;100319.69;4979914;28;20825;-76
2021/07/28 02:06:15;;;;;;;6.43;5.40;;;;;;;17.08;100.00;100319.69;4984536;28;20311;-76
2021/07/28 02:08:44;;;;;;;6.40;5.20;;;;;;;17.05;100.00;100323.34;4977560;28;20206;-75
2021/07/28 02:11:10;;;;;;;6.63;5.17;;;;;;;17.06;100.00;100318.94;4982350;28;20213;-76
2021/07/28 02:13:37;;;;;;;6.77;5.30;;;;;;;17.05;100.00;100314.63;4978845;28;20201;-77
2021/07/28 02:16:05;;;;;;;6.37;5.63;;;;;;;17.03;100.00;100314.69;4989301;28;20679;-77
2021/07/28 02:18:31;;;;;;;6.00;5.30;;;;;;;16.97;100.00;100312.41;4979041;28;20667;-77
2021/07/28 02:20:59;;;;;;;6.07;5.10;;;;;;;16.99;100.00;100313.16;4982456;28;20659;-75
2021/07/28 02:23:25;;;;;;;7.57;5.03;;;;;;;16.98;100.00;100311.47;4981158;28;20649;-76
2021/07/28 02:25:52;;;;;;;6.10;5.10;;;;;;;16.96;100.00;100308.09;4981366;28;20260;-76
2021/07/28 02:28:19;;;;;;;5.90;4.97;;;;;;;16.87;100.00;100312.09;4983493;28;20499;-76
2021/07/28 02:30:45;;;;;;;6.57;5.43;;;;;;;16.84;100.00;100317.53;4983667;28;20217;-74
2021/07/28 02:33:13;;;;;;;6.33;5.43;;;;;;;16.74;100.00;100313.69;4983667;28;20271;-75
2021/07/28 02:35:39;;;;;;;6.07;5.23;;;;;;;16.74;100.00;100309.28;4982835;28;20264;-73
2021/07/28 02:38:05;;;;;;;8.00;5.53;;;;;;;16.73;100.00;100312.84;4984992;28;20208;-75
2021/07/28 02:40:32;;;;;;;6.47;5.63;;;;;;;16.66;100.00;100314.13;4979131;28;20301;-75
2021/07/28 02:42:58;;;;;;;7.17;5.30;;;;;;;16.69;100.00;100306.06;4982849;28;20595;-76
2021/07/28 02:45:25;;;;;;;7.60;5.53;;;;;;;16.70;100.00;100306.91;4980497;28;20690;-75
2021/07/28 02:47:51;;;;;;;7.00;5.40;;;;;;;16.68;100.00;100306.16;4984201;28;20210;-75
2021/07/28 02:50:19;;;;;;;7.53;5.70;;;;;;;16.53;100.00;100303.44;4977761;28;20257;-75
2021/07/28 02:52:45;;;;;;;5.80;5.20;;;;;;;16.48;100.00;100305.50;4988980;28;20203;-75
2021/07/28 02:55:12;;;;;;;6.53;5.60;;;;;;;16.46;100.00;100315.25;4976801;28;20253;-76
2021/07/28 02:57:39;;;;;;;7.60;5.63;;;;;;;16.53;100.00;100313.13;4981112;28;20205;-75
2021/07/28 03:00:07;;;;;;;7.47;5.50;;;;;;;16.45;100.00;100313.56;4981064;28;20201;-76
2021/07/28 03:02:33;;;;;;;8.10;5.67;;;;;;;16.50;100.00;100315.91;4987915;28;20708;-75
2021/07/28 03:05:00;;;;;;;6.70;6.00;;;;;;;16.52;100.00;100311.44;4980329;28;20307;-76
2021/07/28 03:07:28;;;;;;;8.83;5.83;;;;;;;16.59;100.00;100308.38;4980734;28;20210;-75
2021/07/28 03:09:54;;;;;;;7.10;5.87;;;;;;;16.55;100.00;100312.13;4982364;28;20207;-77
2021/07/28 03:12:20;;;;;;;7.10;6.10;;;;;;;16.48;100.00;100316.03;4979356;28;20213;-77
2021/07/28 03:14:47;;;;;;;8.03;6.30;;;;;;;16.56;100.00;100316.44;4982809;28;20467;-77
2021/07/28 03:17:13;;;;;;;8.77;6.70;;;;;;;16.60;100.00;100317.09;4978130;28;20205;-75
2021/07/28 03:19:39;;;;;;;7.07;6.37;;;;;;;16.66;100.00;100322.03;4984456;28;20295;-76
2021/07/28 03:22:06;;;;;;;7.97;6.37;;;;;;;16.65;100.00;100317.69;4978237;28;20200;-75
2021/07/28 03:24:33;;;;;;;11.03;5.90;;;;;;;16.77;100.00;100319.63;4983346;28;20310;-76
2021/07/28 03:27:00;;;;;;;7.37;6.13;;;;;;;16.74;100.00;100322.44;4977804;28;20208;-77
2021/07/28 03:29:26;;;;;;;6.87;5.83;;;;;;;16.78;100.00;100321.34;4983843;28;20206;-77
2021/07/28 03:31:53;;;;;;;7.03;5.80;;;;;;;16.86;100.00;100326.19;4977742;28;20201;-74
2021/07/28 03:34:19;;;;;;;9.23;6.23;;;;;;;16.81;100.00;100318.50;4979044;28;20325;-77
2021/07/28 03:36:45;;;;;;;7.10;5.63;;;;;;;16.89;100.00;100322.56;4978191;28;20221;-74
2021/07/28 03:39:12;;;;;;;8.40;5.77;;;;;;;16.86;100.00;100323.56;4982081;28;20215;-74
2021/07/28 03:41:39;;;;;;;7.77;5.60;;;;;;;16.86;100.00;100325.34;4980775;28;20204;-77
2021/07/28 03:44:07;;;;;;;6.90;5.57;;;;;;;16.91;100.00;100328.56;4976585;28;20599;-76
2021/07/28 03:46:34;;;;;;;7.63;6.23;;;;;;;16.91;100.00;100331.22;4979597;28;20283;-77
2021/07/28 03:49:00;;;;;;;9.50;6.17;;;;;;;16.89;100.00;100333.94;4976477;28;20665;-76
2021/07/28 03:51:27;;;;;;;7.93;5.63;;;;;;;16.96;100.00;100352.88;4982143;28;20244;-77
2021/07/28 03:53:53;;;;;;;7.60;6.20;;;;;;;16.94;100.00;100362.59;4978475;28;20255;-75
2021/07/28 03:56:22;;;;;;;7.27;5.83;;;;;;;16.99;100.00;100368.47;4984339;28;20225;-77
2021/07/28 03:58:53;;;;;;;8.33;6.20;;;;;;;16.99;100.00;100379.88;4980277;28;20213;-77
2021/07/28 04:01:19;;;;;;;6.93;5.30;;;;;;;16.97;100.00;100379.13;4981843;28;20264;-75
2021/07/28 04:03:45;;;;;;;7.53;5.97;;;;;;;16.98;100.00;100380.78;4975935;28;20225;-75
2021/07/28 04:06:12;;;;;;;7.53;5.80;;;;;;;17.00;100.00;100389.44;4984003;28;20237;-75
2021/07/28 04:08:38;;;;;;;9.70;6.30;;;;;;;17.02;100.00;100384.09;4979626;28;20212;-76
2021/07/28 04:11:04;;;;;;;8.83;6.23;;;;;;;17.10;100.00;100373.16;4980593;28;20213;-75
2021/07/28 04:13:31;;;;;;;9.97;6.90;;;;;;;17.05;100.00;100360.22;4980825;28;20204;-75
2021/07/28 04:15:58;;;;;;;8.13;6.13;;;;;;;17.19;100.00;100351.53;4978560;28;20590;-76
2021/07/28 04:18:25;;;;;;;7.90;7.10;;;;;;;17.23;100.00;100361.78;4983612;28;20209;-74
2021/07/28 04:20:51;;;;;;;9.93;6.63;;;;;;;17.25;100.00;100360.84;4976917;28;20542;-76
2021/07/28 04:23:18;;;;;;;8.13;6.63;;;;;;;17.23;100.00;100351.25;4981196;28;20221;-75
2021/07/28 04:25:44;;;;;;;8.47;6.73;;;;;;;17.23;100.00;100356.50;4979908;28;20229;-76
2021/07/28 04:28:10;;;;;;;9.17;6.87;;;;;;;17.33;100.00;100356.00;4981907;28;20205;-76
2021/07/28 04:30:37;;;;;;;8.30;6.57;;;;;;;17.33;100.00;100345.47;4975450;28;20205;-76
2021/07/28 04:33:04;;;;;;;9.40;7.50;;;;;;;17.30;100.00;100337.72;4983941;28;20686;-76
2021/07/28 04:35:30;;;;;;;8.23;6.80;;;;;;;17.32;100.00;100331.41;4977241;28;20220;-75
2021/07/28 04:37:57;;;;;;;10.07;7.13;;;;;;;17.35;100.00;100335.69;4981431;28;20490;-76
2021/07/28 04:40:23;;;;;;;9.07;6.80;;;;;;;17.35;100.00;100340.94;4977220;28;20316;-76
2021/07/28 04:42:50;;;;;;;9.73;7.00;;;;;;;17.50;100.00;100342.69;4977860;28;20312;-73
2021/07/28 04:45:17;;;;;;;9.90;7.67;;;;;;;17.64;100.00;100347.09;4977161;28;20499;-75
2021/07/28 04:47:43;;;;;;;10.00;8.07;;;;;;;17.65;100.00;100342.69;4983155;28;20209;-74
2021/07/28 04:50:12;;;;;;;8.63;6.83;;;;;;;17.67;100.00;100336.38;4978811;28;20691;-74
2021/07/28 04:52:38;;;;;;;11.33;7.40;;;;;;;17.69;100.00;100333.66;4976877;28;20216;-73
2021/07/28 04:55:05;;;;;;;7.57;6.60;;;;;;;17.80;100.00;100328.59;4981223;28;20217;-73
2021/07/28 04:57:31;;;;;;;12.17;7.73;;;;;;;17.85;100.00;100328.28;4977012;28;20218;-74
2021/07/28 04:59:58;;;;;;;12.00;7.90;;;;;;;17.83;100.00;100324.91;4982745;28;20205;-76
2021/07/28 05:02:25;;;;;;;10.07;7.80;;;;;;;17.92;100.00;100319.09;4975178;28;20585;-76
2021/07/28 05:04:52;;;;;;;10.50;7.60;;;;;;;17.98;100.00;100318.72;4983316;28;20718;-76
2021/07/28 05:07:19;;;;;;;12.63;7.43;;;;;;;18.04;100.00;100320.13;4981791;28;20215;-76
2021/07/28 05:09:46;;;;;;;11.87;7.20;;;;;;;18.07;100.00;100310.25;4987005;28;20216;-76
2021/07/28 05:12:12;;;;;;;9.40;7.00;;;;;;;18.14;100.00;100302.78;4979965;28;20221;-76
2021/07/28 05:14:38;;;;;;;10.73;7.40;;;;;;;18.21;100.00;100306.72;4982453;28;20558;-76
2021/07/28 05:17:05;;;;;;;9.67;7.37;;;;;;;18.22;100.00;100308.41;4981814;28;20721;-76
2021/07/28 05:19:31;;;;;;;11.50;6.67;;;;;;;18.29;100.00;100307.09;4983332;28;20201;-76
2021/07/28 05:21:57;;;;;;;10.13;7.63;;;;;;;18.32;100.00;100312.16;4985604;28;20209;-76
2021/07/28 05:24:25;;;;;;;10.83;7.53;;;;;;;18.32;100.00;100298.13;4985296;28;20218;-75
2021/07/28 05:26:52;;;;;;;10.73;6.80;;;;;;;18.28;100.00;100302.75;4985151;28;20406;-75
2021/07/28 05:29:18;;;;;;;8.40;6.53;;;;;;;18.35;100.00;100314.63;4979580;28;20513;-75
2021/07/28 05:31:44;;;;;;;8.73;7.43;;;;;;;18.34;100.00;100310.28;4985437;28;20212;-76
2021/07/28 05:34:11;;;;;;;11.30;7.60;;;;;;;18.32;100.00;100298.97;4979988;28;20633;-76
2021/07/28 05:36:37;;;;;;;10.57;7.43;;;;;;;18.30;100.00;100292.94;4987448;28;20264;-76
2021/07/28 05:39:04;;;;;;;8.63;7.20;;;;;;;18.27;100.00;100285.22;4978621;28;20209;-74
2021/07/28 05:41:31;;;;;;;10.97;7.10;;;;;;;18.29;100.00;100283.34;4986459;28;20205;-75
2021/07/28 05:43:58;;;;;;;9.50;7.13;;;;;;;18.31;100.00;100286.75;4978747;28;20228;-75
2021/07/28 05:46:24;;;;;;;10.07;7.53;;;;;;;18.35;100.00;100287.38;4988997;28;20228;-75
2021/07/28 05:48:50;;;;;;;11.10;7.50;;;;;;;18.39;100.00;100277.47;4981292;28;20210;-76
2021/07/28 05:51:17;;;;;;;10.40;7.10;;;;;;;18.49;100.00;100279.44;4981998;28;20214;-75
2021/07/28 05:53:43;;;;;;;10.03;7.40;;;;;;;18.64;100.00;100290.78;4980747;28;20754;-76
2021/07/28 05:56:09;;;;;;;9.93;7.63;;;;;;;18.66;100.00;100290.69;4985162;28;20244;-75
2021/07/28 05:58:37;;;;;;;8.43;7.10;;;;;;;18.68;100.00;100288.78;4983368;28;20204;-75
2021/07/28 06:01:03;;;;;;;8.93;7.67;;;;;;;18.79;100.00;100283.66;4981908;28;20209;-76
2021/07/28 06:03:30;;;;;;;10.73;8.20;;;;;;;18.91;100.00;100279.41;4984679;28;20217;-76
2021/07/28 06:05:57;;;;;;;8.80;7.67;;;;;;;18.97;100.00;100281.63;4979134;28;20224;-75
2021/07/28 06:08:24;;;;;;;12.27;7.90;;;;;;;18.98;100.00;100291.25;4983873;28;20426;-75
2021/07/28 06:10:50;;;;;;;10.53;8.07;;;;;;;19.12;100.00;100285.03;4978783;28;20450;-76
2021/07/28 06:13:17;;;;;;;11.33;7.70;;;;;;;19.20;100.00;100290.63;4985813;28;20601;-76
2021/07/28 06:15:46;;;;;;;9.20;7.73;;;;;;;19.27;100.00;100291.91;4978191;28;20235;-76
2021/07/28 06:18:13;;;;;;;11.43;7.50;;;;;;;19.41;100.00;100277.75;4977696;28;20209;-76
2021/07/28 06:20:39;;;;;;;8.80;7.33;;;;;;;19.50;100.00;100292.13;4978762;28;20209;-75
2021/07/28 06:23:05;;;;;;;8.50;7.23;;;;;;;19.56;100.00;100282.94;4982077;28;20209;-76
2021/07/28 06:25:32;;;;;;;11.07;7.07;;;;;;;19.64;100.00;100280.63;4980397;28;20232;-76
2021/07/28 06:27:58;;;;;;;10.03;7.57;;;;;;;19.73;100.00;100287.91;4981649;28;20673;-76
2021/07/28 06:30:24;;;;;;;9.60;8.10;;;;;;;19.85;100.00;100288.88;4978052;28;20202;-76
2021/07/28 06:32:52;;;;;;;8.37;7.43;;;;;;;19.99;100.00;100303.78;4980827;28;20213;-76
2021/07/28 06:35:19;;;;;;;10.03;7.37;;;;;;;20.09;100.00;100296.03;4983057;28;20639;-76
2021/07/28 06:37:45;;;;;;;10.07;7.37;;;;;;;20.16;100.00;100303.44;4978865;28;20201;-76
2021/07/28 06:40:12;;;;;;;9.87;7.77;;;;;;;20.23;100.00;100309.13;4985985;28;20650;-72
2021/07/28 06:42:39;;;;;;;8.67;7.23;;;;;;;20.25;100.00;100296.63;4977680;28;20212;-76
2021/07/28 06:45:06;;;;;;;8.00;6.83;;;;;;;20.31;100.00;100298.00;4984126;28;21935;-75
2021/07/28 06:47:33;;;;;;;9.80;6.93;;;;;;;20.27;100.00;100307.13;4977865;28;20698;-76
2021/07/28 06:50:03;;;;;;;10.03;7.40;;;;;;;20.28;100.00;100299.06;4986565;28;20749;-76
2021/07/28 06:52:29;;;;;;;8.43;7.17;;;;;;;20.32;100.00;100292.59;4979639;28;20575;-75
2021/07/28 06:54:55;;;;;;;9.23;6.73;;;;;;;20.29;100.00;100286.66;4983661;28;20708;-76
2021/07/28 06:57:22;;;;;;;8.30;6.87;;;;;;;20.31;100.00;100280.28;4980420;28;20209;-76
2021/07/28 06:59:48;;;;;;;9.37;7.27;;;;;;;20.34;100.00;100285.38;4982113;28;20205;-76
2021/07/28 07:02:14;;;;;;;8.87;7.03;;;;;;;20.39;100.00;100287.69;4979228;28;20209;-74
2021/07/28 07:04:41;;;;;;;8.33;7.07;;;;;;;20.48;100.00;100300.25;4978688;28;20227;-73
2021/07/28 07:07:08;;;;;;;8.83;6.77;;;;;;;20.63;100.00;100305.41;4985111;28;20201;-74
2021/07/28 07:09:35;;;;;;;8.00;7.17;;;;;;;20.79;100.00;100305.97;4977168;28;20555;-75
2021/07/28 07:12:01;;;;;;;10.00;7.60;;;;;;;21.07;100.00;100307.44;4987670;28;20205;-75
2021/07/28 07:14:29;;;;;;;8.47;7.00;;;;;;;21.29;100.00;100316.41;4978544;28;20205;-75
2021/07/28 07:16:56;;;;;;;8.47;7.23;;;;;;;21.39;99.10;100320.06;4982772;28;20231;-75
2021/07/28 07:19:22;;;;;;;9.07;6.90;;;;;;;21.41;98.27;100326.06;4977715;28;20213;-76
2021/07/28 07:21:49;;;;;;;8.10;6.50;;;;;;;21.53;99.73;100333.13;4987122;28;20212;-75
2021/07/28 07:24:16;;;;;;;6.93;6.10;;;;;;;21.54;98.01;100348.06;4974345;28;20328;-76
2021/07/28 07:26:43;;;;;;;7.50;6.15;;;;;;;21.73;98.96;100342.19;4981321;28;20536;-76
2021/07/28 07:29:09;;;;;;;7.20;6.22;;;;;;;21.92;97.21;100346.06;4978579;28;20237;-76
2021/07/28 07:31:35;;;;;;;6.22;5.60;;;;;;;22.12;91.36;100348.00;4985299;28;20834;-73
2021/07/28 07:34:02;;;;;;;7.32;5.57;;;;;;;22.12;89.11;100344.50;4981069;28;20205;-75
2021/07/28 07:36:28;;;;;;;6.82;5.72;;;;;;;22.34;91.95;100332.19;4982264;28;20244;-76
2021/07/28 07:38:55;;;;;;;7.03;5.75;;;;;;;22.49;92.15;100328.31;4979100;28;20574;-76
2021/07/28 07:41:24;;;;;;;8.40;5.80;;;;;;;22.34;88.54;100345.47;4978259;28;20627;-76
2021/07/28 07:43:51;;;;;;;7.90;5.63;;;;;;;22.34;87.37;100351.66;4981109;28;21600;-76
2021/07/28 07:46:17;;;;;;;7.68;5.80;;;;;;;22.37;89.80;100347.88;4977312;28;20232;-75
2021/07/28 07:48:43;;;;;;;8.10;5.22;;;;;;;22.39;88.25;100351.25;4981727;28;20205;-75
2021/07/28 07:51:10;;;;;;;5.65;5.05;;;;;;;22.41;87.76;100365.25;4976754;28;20201;-76
2021/07/28 07:53:36;;;;;;;6.57;5.70;;;;;;;22.53;89.47;100366.91;4985362;28;20213;-76
2021/07/28 07:56:05;;;;;;;6.43;5.70;;;;;;;22.49;89.98;100368.16;4975894;28;20229;-76
2021/07/28 07:58:33;;;;;;;5.80;4.68;;;;;;;22.35;88.22;100371.91;4983473;28;20700;-75
2021/07/28 08:01:05;;;;;;;6.85;5.47;;;;;;;22.30;85.90;100368.78;4977824;28;20580;-76
2021/07/28 08:03:31;;;;;;;7.43;5.45;;;;;;;22.40;87.14;100371.56;4978570;28;20296;-76
2021/07/28 08:05:57;;;;;;;9.32;5.57;;;;;;;22.38;88.67;100368.19;4979046;28;20240;-76
2021/07/28 08:08:24;;;;;;;5.82;5.22;;;;;;;22.27;85.65;100371.69;4978317;28;20301;-76
2021/07/28 08:10:50;;;;;;;5.65;5.05;;;;;;;22.13;86.72;100356.81;4980000;28;20206;-75
2021/07/28 08:13:17;;;;;;;5.03;4.57;;;;;;;22.12;85.34;100357.78;4976258;28;20622;-75
2021/07/28 08:15:44;;;;;;;5.80;4.97;;;;;;;21.91;83.51;100369.09;4981328;28;20718;-75
2021/07/28 08:18:10;;;;;;;5.63;5.00;;;;;;;21.80;83.69;100355.00;4981182;28;20686;-74
2021/07/28 08:20:38;;;;;;;5.78;4.90;;;;;;;21.92;86.78;100349.56;4981071;28;20205;-75
2021/07/28 08:23:04;;;;;;;6.15;4.97;;;;;;;22.02;85.91;100360.31;4975226;28;20208;-76
2021/07/28 08:25:31;;;;;;;6.13;4.65;;;;;;;21.98;84.57;100365.97;4986992;28;20229;-74
2021/07/28 08:27:57;;;;;;;6.00;4.75;;;;;;;21.96;85.67;100360.78;4974207;28;20215;-74
2021/07/28 08:30:23;;;;;;;5.57;4.97;;;;;;;21.73;85.19;100365.22;4970348;28;20773;-74
2021/07/28 08:32:51;;;;;;;5.47;4.78;;;;;;;21.67;86.46;100368.34;4976806;28;20304;-76
2021/07/28 08:35:18;;;;;;;6.95;5.15;;;;;;;21.58;87.10;100369.06;4981604;28;20217;-74
2021/07/28 08:37:44;;;;;;;5.70;5.10;;;;;;;21.52;86.42;100368.56;4980391;28;20201;-76
2021/07/28 08:40:13;;;;;;;6.75;4.82;;;;;;;21.41;86.50;100365.03;4978774;28;20202;-75
2021/07/28 08:42:45;;;;;;;6.03;5.07;;;;;;;21.47;88.10;100364.56;4979120;28;20256;-76
2021/07/28 08:45:14;;;;;;;6.95;4.88;;;;;;;21.48;87.28;100366.28;4979143;28;21370;-76
2021/07/28 08:47:42;;;;;;;6.93;5.40;;;;;;;21.51;87.65;100364.22;4982412;28;20703;-75
2021/07/28 08:50:12;;;;;;;6.22;5.35;;;;;;;21.43;86.83;100358.63;4976005;28;20309;-76
2021/07/28 08:52:40;;;;;;;7.63;5.80;;;;;;;21.50;88.77;100364.34;4981434;28;20684;-73
2021/07/28 08:55:07;;;;;;;7.93;5.28;;;;;;;21.55;87.88;100364.84;4975175;28;20228;-75
2021/07/28 08:57:34;;;;;;;6.15;5.18;;;;;;;21.69;87.62;100359.31;4983732;28;20204;-75
2021/07/28 09:00:01;;;;;;;7.25;5.47;;;;;;;21.85;87.61;100374.91;4981462;28;20476;-74
2021/07/28 09:02:28;;;;;;;6.55;5.40;;;;;;;21.99;88.29;100370.34;4979606;28;20202;-76
2021/07/28 09:04:55;;;;;;;6.30;5.15;;;;;;;22.09;86.34;100369.50;4972996;28;20317;-74
2021/07/28 09:07:23;;;;;;;6.20;5.60;;;;;;;21.93;82.50;100374.28;4979402;28;20213;-74
2021/07/28 09:09:51;;;;;;;6.30;5.07;;;;;;;21.82;82.65;100382.25;4977518;28;20212;-73
2021/07/28 09:12:17;;;;;;;6.25;5.18;;;;;;;21.69;85.44;100366.44;4979379;28;20201;-75
2021/07/28 09:14:51;;;;;;;6.70;5.38;;;;;;;21.58;84.77;100369.88;4976367;28;20835;-76
2021/07/28 09:17:20;;;;;;;6.00;5.35;;;;;;;21.51;85.03;100366.00;4976986;28;20213;-76
2021/07/28 09:19:48;;;;;;;7.28;5.15;;;;;;;21.48;84.77;100366.28;4974759;28;20289;-75
2021/07/28 09:22:18;;;;;;;7.43;5.57;;;;;;;21.53;85.73;100364.97;4974706;28;20219;-74
2021/07/28 09:24:50;;;;;;;6.30;5.50;;;;;;;21.54;84.50;100371.94;4981526;28;20238;-76
2021/07/28 09:27:46;;;;;;;8.32;5.90;;;;;;;21.57;84.73;100365.56;4975681;28;20327;-75
2021/07/28 09:30:17;;;;;;;6.22;5.10;;;;;;;21.72;85.17;100375.00;4977946;28;20218;-76
2021/07/28 09:33:05;;;;;;;5.65;5.05;;;;;;;21.78;84.23;100386.94;4975572;28;20675;-75
2021/07/28 09:36:21;;;;;;;6.97;4.65;;;;;;;21.92;84.73;100381.41;4978432;28;20233;-73
2021/07/28 09:38:48;;;;;;;5.95;5.07;;;;;;;22.04;83.53;100389.38;4982376;28;20694;-72
2021/07/28 09:41:18;;;;;;;6.00;5.28;;;;;;;22.04;79.88;100392.91;4975839;28;20212;-74
2021/07/28 09:43:53;;;;;;;6.32;5.25;;;;;;;22.00;79.90;100401.19;4980609;28;20198;-73
2021/07/28 09:46:22;;;;;;;7.40;5.70;;;;;;;21.94;79.50;100399.88;4973763;28;20638;-74
2021/07/28 09:48:48;;;;;;;6.85;5.20;;;;;;;21.83;81.48;100402.50;4979862;28;20202;-74
2021/07/28 09:51:22;;;;;;;7.10;5.95;;;;;;;21.99;82.48;100396.88;4977694;28;20292;-73
2021/07/28 09:53:53;;;;;;;7.03;5.80;;;;;;;22.13;81.41;100396.63;4981436;28;20214;-73
2021/07/28 09:56:29;;;;;;;6.90;5.55;;;;;;;22.31;80.32;100397.84;4980235;28;20230;-77
2021/07/28 09:58:58;;;;;;;6.20;5.50;;;;;;;22.40;80.29;100406.91;4978840;28;20219;-76
2021/07/28 10:01:26;;;;;;;7.22;5.72;;;;;;;22.65;81.05;100410.25;4984501;28;20719;-73
2021/07/28 10:03:54;;;;;;;7.18;5.10;;;;;;;22.84;79.39;100418.44;4977164;28;20213;-71
2021/07/28 10:06:22;;;;;;;7.30;5.97;;;;;;;23.11;79.28;100417.19;4982315;28;20719;-73
2021/07/28 10:08:53;;;;;;;6.53;5.55;;;;;;;23.09;76.45;100424.44;4979415;28;20304;-74
2021/07/28 10:11:22;;;;;;;7.85;5.97;;;;;;;23.01;76.44;100425.06;4986517;28;20215;-74
2021/07/28 10:13:51;;;;;;;6.05;5.43;;;;;;;22.92;77.72;100427.59;4980460;28;20501;-76
2021/07/28 10:16:18;;;;;;;7.07;5.95;;;;;;;22.94;77.62;100425.69;4983689;28;20436;-73
2021/07/28 10:18:46;;;;;;;6.25;5.65;;;;;;;22.71;79.30;100431.03;4982862;28;20197;-76
2021/07/28 10:21:12;;;;;;;6.22;5.63;;;;;;;22.63;79.61;100425.50;4981429;28;20646;-74
2021/07/28 10:23:38;;;;;;;5.55;5.00;;;;;;;22.54;76.79;100428.88;4983039;28;20309;-74
2021/07/28 10:26:06;;;;;;;6.40;5.55;;;;;;;22.59;79.27;100424.06;4976845;28;20235;-75
2021/07/28 10:28:33;;;;;;;6.28;5.68;;;;;;;22.61;78.23;100425.59;4982371;28;20754;-75
2021/07/28 10:31:16;;;;;;;7.28;5.57;;;;;;;22.60;77.35;100418.63;4977414;28;20562;-76
2021/07/28 10:33:46;;;;;;;7.30;5.45;;;;;;;22.69;79.10;100428.50;4979029;28;20249;-75
2021/07/28 10:36:13;;;;;;;6.32;5.72;;;;;;;22.88;78.65;100419.91;4978706;28;20316;-75
2021/07/28 10:38:54;;;;;;;9.07;5.90;;;;;;;23.15;77.74;100410.66;4982373;28;20209;-76
2021/07/28 10:41:49;;;;;;;6.97;6.07;;;;;;;23.43;80.46;100416.34;4987102;28;20212;-74
2021/07/28 10:44:22;;;;;;;7.35;6.22;;;;;;;23.81;76.96;100418.44;4981275;28;20205;-75
2021/07/28 10:47:35;;;;;;;6.30;5.70;;;;;;;23.99;75.92;100424.03;4984767;28;20407;-76
2021/07/28 10:50:02;;;;;;;6.15;5.53;;;;;;;23.92;73.88;100417.56;4978426;28;20207;-76
2021/07/28 10:52:39;;;;;;;6.53;5.85;;;;;;;23.91;75.69;100415.84;4982877;28;20205;-74
2021/07/28 10:55:27;;;;;;;7.53;6.30;;;;;;;23.68;73.30;100422.28;4981162;28;20216;-74
2021/07/28 10:58:26;;;;;;;6.55;5.88;;;;;;;23.67;74.13;100417.91;4980616;28;20286;-75
2021/07/28 11:00:59;;;;;;;6.55;5.60;;;;;;;23.59;72.31;100411.41;4998981;28;20632;-74
2021/07/28 11:03:36;;;;;;;6.13;5.53;;;;;;;23.80;74.77;100400.81;4977938;28;20210;-75
2021/07/28 11:06:33;;;;;;;6.47;5.13;;;;;;;23.86;69.33;100410.06;4979587;28;20225;-75
2021/07/28 11:09:18;;;;;;;7.40;5.53;;;;;;;23.86;71.39;100411.91;4983326;28;20212;-74
2021/07/28 11:11:48;;;;;;;6.03;5.28;;;;;;;23.78;72.00;100409.84;4977162;28;20268;-75
2021/07/28 11:14:15;;;;;;;7.05;5.88;;;;;;;23.65;72.55;100404.72;4985059;28;20236;-76
2021/07/28 11:16:41;;;;;;;7.15;6.22;;;;;;;23.66;72.89;100406.44;4976074;28;20615;-75
2021/07/28 11:19:09;;;;;;;6.40;5.57;;;;;;;23.84;72.65;100397.88;4986598;28;20205;-73
2021/07/28 11:21:35;;;;;;;5.90;5.30;;;;;;;23.92;70.60;100400.72;4976416;28;20206;-74
2021/07/28 11:24:04;;;;;;;6.07;5.47;;;;;;;23.98;71.94;100401.03;4983715;28;20553;-75
2021/07/28 11:26:33;;;;;;;6.78;5.28;;;;;;;24.36;71.00;100394.19;4979341;28;20244;-75